| time (UTC) | temp F | wind direction | speed knots | gust knots | rain 1hr in | rain 24hr in | rain mn in | humidity % | barometer mb |
| 20260507210111 | 56 | 0 | 0.0 | 0.0 | 0.00 | 0.09 | 0.09 | 92 | 1015.4 |
| 20260507204600 | 57 | 0 | 0.0 | 0.0 | 0.00 | 0.17 | 0.09 | 91 | 1015.2 |
| 20260507203112 | 57 | 0 | 0.0 | 0.0 | 0.00 | 0.17 | 0.09 | 91 | 1015.2 |
| 20260507201609 | 57 | 0 | 0.0 | 0.0 | 0.00 | 0.17 | 0.09 | 91 | 1015.3 |
| 20260507200056 | 57 | 0 | 0.0 | 0.0 | 0.00 | 0.17 | 0.09 | 91 | 1015.3 |
| 20260507194554 | 57 | 0 | 0.0 | 0.0 | 0.00 | 0.38 | 0.09 | 91 | 1015.1 |
| 20260507193055 | 58 | 0 | 0.0 | 0.0 | 0.00 | 0.38 | 0.09 | 90 | 1014.9 |
| 20260507191553 | 58 | 0 | 0.0 | 0.0 | 0.00 | 0.38 | 0.09 | 89 | 1014.9 |
| 20260507190100 | 59 | 0 | 0.0 | 0.0 | 0.00 | 0.38 | 0.09 | 88 | 1014.7 |
| 20260507184554 | 60 | 0 | 0.0 | 0.0 | 0.00 | 0.38 | 0.09 | 88 | 1014.5 |
| 20260507183056 | 60 | 0 | 0.0 | 0.0 | 0.00 | 0.38 | 0.09 | 86 | 1014.4 |
| 20260507181556 | 61 | 0 | 0.0 | 0.0 | 0.00 | 0.38 | 0.09 | 85 | 1014.2 |
| 20260507180059 | 62 | 0 | 0.0 | 0.9 | 0.00 | 0.38 | 0.09 | 84 | 1014.1 |
| 20260507174605 | 63 | 275 | 0.0 | 0.9 | 0.00 | 0.44 | 0.09 | 81 | 1014.1 |
| 20260507173054 | 63 | 0 | 0.0 | 3.5 | 0.00 | 0.44 | 0.09 | 81 | 1014.1 |
| 20260507171604 | 63 | 227 | 0.0 | 2.6 | 0.00 | 0.44 | 0.09 | 80 | 1014.2 |
| 20260507170055 | 63 | 0 | 0.0 | 1.7 | 0.00 | 0.44 | 0.09 | 80 | 1014.2 |
| 20260507164553 | 63 | 281 | 1.7 | 4.3 | 0.00 | 0.48 | 0.09 | 79 | 1014.2 |
| 20260507163054 | 63 | 286 | 0.0 | 2.6 | 0.00 | 0.48 | 0.09 | 79 | 1014.1 |
| 20260507161556 | 64 | 252 | 0.9 | 2.6 | 0.00 | 0.48 | 0.09 | 77 | 1014.0 |
| 20260507160056 | 64 | 0 | 0.0 | 1.7 | 0.00 | 0.48 | 0.09 | 78 | 1014.0 |
| 20260507154557 | 64 | 338 | 0.9 | 2.6 | 0.00 | 0.48 | 0.09 | 77 | 1014.0 |
| 20260507153101 | 64 | 0 | 0.9 | 2.6 | 0.00 | 0.48 | 0.09 | 77 | 1014.1 |
| 20260507151555 | 64 | 304 | 2.6 | 5.2 | 0.00 | 0.48 | 0.09 | 77 | 1014.1 |
| 20260507150053 | 64 | 276 | 3.5 | 6.1 | 0.00 | 0.48 | 0.09 | 77 | 1014.2 |
| 20260507144554 | 65 | 306 | 1.7 | 6.1 | 0.00 | 0.48 | 0.09 | 78 | 1014.4 |
| 20260507143056 | 66 | 317 | 1.7 | 4.3 | 0.00 | 0.48 | 0.09 | 75 | 1014.4 |
| 20260507141559 | 66 | 319 | 0.9 | 4.3 | 0.00 | 0.48 | 0.09 | 74 | 1014.3 |
| 20260507140106 | 66 | 285 | 0.0 | 5.2 | 0.00 | 0.48 | 0.09 | 74 | 1014.4 |
| 20260507134552 | 66 | 321 | 1.7 | 4.3 | 0.00 | 0.48 | 0.09 | 72 | 1014.5 |
| 20260507133101 | 66 | 319 | 3.5 | 6.1 | 0.00 | 0.48 | 0.09 | 73 | 1014.6 |
| 20260507131554 | 66 | 314 | 1.7 | 7.8 | 0.00 | 0.48 | 0.09 | 73 | 1014.7 |
| 20260507130112 | 66 | 280 | 3.5 | 5.2 | 0.00 | 0.48 | 0.09 | 72 | 1014.7 |
| 20260507124631 | 66 | 337 | 2.6 | 4.3 | 0.00 | 0.48 | 0.09 | 74 | 1014.9 |
| 20260507123053 | 66 | 318 | 2.6 | 4.3 | 0.00 | 0.48 | 0.09 | 75 | 1014.9 |
| 20260507121554 | 65 | 310 | 1.7 | 6.1 | 0.00 | 0.48 | 0.09 | 75 | 1015.0 |
| 20260507120054 | 65 | 355 | 0.0 | 4.3 | 0.00 | 0.48 | 0.09 | 78 | 1015.0 |
| 20260507114610 | 64 | 327 | 0.0 | 1.7 | 0.00 | 0.48 | 0.09 | 80 | 1015.1 |
| 20260507113057 | 63 | 348 | 0.9 | 2.6 | 0.00 | 0.48 | 0.09 | 79 | 1015.2 |
| 20260507111553 | 62 | 0 | 0.0 | 1.7 | 0.00 | 0.48 | 0.09 | 87 | 1015.3 |
| 20260507110057 | 62 | 0 | 0.0 | 0.9 | 0.00 | 0.48 | 0.09 | 87 | 1015.4 |
| 20260507104556 | 61 | 0 | 0.0 | 1.7 | 0.03 | 0.48 | 0.09 | 88 | 1015.4 |
| 20260507103050 | 60 | 0 | 0.0 | 1.7 | 0.04 | 0.48 | 0.09 | 89 | 1015.5 |
| 20260507101557 | 60 | 244 | 0.9 | 5.2 | 0.05 | 0.48 | 0.09 | 89 | 1015.6 |
| 20260507100058 | 60 | 221 | 0.9 | 3.5 | 0.06 | 0.47 | 0.08 | 89 | 1015.7 |
| 20260507094552 | 60 | 270 | 0.9 | 4.3 | 0.04 | 0.44 | 0.06 | 88 | 1015.7 |
| 20260507093054 | 60 | 252 | 1.7 | 5.2 | 0.03 | 0.43 | 0.04 | 88 | 1015.5 |
| 20260507091558 | 60 | 234 | 0.9 | 4.3 | 0.02 | 0.41 | 0.03 | 88 | 1015.4 |
| 20260507090105 | 60 | 276 | 1.7 | 5.2 | 0.01 | 0.40 | 0.02 | 86 | 1015.3 |
| 20260507084600 | 60 | 0 | 0.9 | 7.0 | 0.00 | 0.40 | 0.01 | 86 | 1015.2 |
| 20260507083106 | 61 | 282 | 0.9 | 3.5 | 0.00 | 0.40 | 0.01 | 86 | 1015.0 |
| 20260507081713 | 61 | 239 | 1.7 | 7.0 | 0.00 | 0.39 | 0.00 | 85 | 1015.0 |
| 20260507080103 | 61 | 248 | 1.7 | 7.8 | 0.00 | 0.39 | 0.00 | 85 | 1014.9 |
| 20260507074607 | 61 | 244 | 1.7 | 5.2 | 0.00 | 0.39 | 0.00 | 87 | 1014.6 |
| 20260507073102 | 60 | 155 | 0.9 | 6.1 | 0.00 | 0.39 | 0.00 | 89 | 1014.6 |
| 20260507071555 | 59 | 209 | 2.6 | 6.1 | 0.00 | 0.39 | 0.00 | 88 | 1014.6 |
| 20260507070107 | 59 | 245 | 2.6 | 3.5 | 0.00 | 0.39 | 0.00 | 90 | 1014.5 |
| 20260507064610 | 59 | 259 | 0.9 | 3.5 | 0.00 | 0.39 | 0.00 | 91 | 1014.3 |
| 20260507063059 | 59 | 192 | 2.6 | 5.2 | 0.00 | 0.38 | 0.00 | 91 | 1014.2 |
| 20260507061602 | 59 | 239 | 1.7 | 3.5 | 0.00 | 0.38 | 0.00 | 93 | 1014.1 |
| 20260507060057 | 58 | 208 | 0.9 | 3.5 | 0.00 | 0.38 | 0.00 | 93 | 1014.0 |
| 20260507054558 | 58 | 221 | 1.7 | 2.6 | 0.00 | 0.38 | 0.00 | 94 | 1013.9 |
| 20260507053057 | 59 | 0 | 0.9 | 2.6 | 0.00 | 0.38 | 0.00 | 94 | 1013.7 |
| 20260507051601 | 58 | 198 | 1.7 | 2.6 | 0.00 | 0.38 | 0.00 | 94 | 1013.7 |
| 20260507044559 | 57 | 0 | 0.0 | 2.6 | 0.00 | 0.38 | 0.00 | 94 | 1013.4 |
| 20260507043057 | 57 | 0 | 0.0 | 0.0 | 0.00 | 0.38 | 0.00 | 94 | 1013.2 |
| 20260507041558 | 57 | 0 | 0.0 | 0.0 | 0.00 | 0.38 | 0.00 | 93 | 1013.0 |
| 20260507040110 | 57 | 0 | 0.0 | 0.0 | 0.00 | 0.38 | 0.00 | 93 | 1013.0 |
| 20260507034559 | 57 | 0 | 0.0 | 0.0 | 0.00 | 0.38 | 0.00 | 94 | 1012.9 |
| 20260507033102 | 57 | 0 | 0.0 | 0.0 | 0.00 | 0.38 | 0.00 | 94 | 1012.7 |
| 20260507031618 | 57 | 0 | 0.0 | 0.0 | 0.00 | 0.38 | 0.00 | 94 | 1012.7 |
| 20260507030053 | 57 | 0 | 0.0 | 0.0 | 0.00 | 0.38 | 0.00 | 93 | 1012.5 |
| 20260507024556 | 57 | 0 | 0.0 | 0.0 | 0.00 | 0.38 | 0.00 | 93 | 1012.7 |
| 20260507023053 | 57 | 0 | 0.0 | 0.0 | 0.00 | 0.38 | 0.00 | 93 | 1012.6 |
| 20260507021554 | 57 | 0 | 0.0 | 0.0 | 0.00 | 0.38 | 0.00 | 93 | 1012.6 |
| 20260507020059 | 58 | 0 | 0.0 | 0.0 | 0.00 | 0.38 | 0.00 | 93 | 1012.4 |
| 20260507014603 | 58 | 0 | 0.0 | 0.0 | 0.00 | 0.38 | 0.00 | 93 | 1012.4 |
| 20260507013114 | 58 | 0 | 0.0 | 0.0 | 0.00 | 0.38 | 0.00 | 93 | 1012.3 |
| 20260507011553 | 59 | 0 | 0.0 | 0.0 | 0.00 | 0.38 | 0.00 | 93 | 1012.4 |
| 20260507010104 | 59 | 0 | 0.0 | 0.0 | 0.00 | 0.38 | 0.00 | 93 | 1012.3 |
| 20260507004554 | 58 | 0 | 0.0 | 0.0 | 0.00 | 0.38 | 0.00 | 93 | 1012.2 |
| 20260507003056 | 58 | 0 | 0.0 | 0.0 | 0.00 | 0.38 | 0.00 | 93 | 1012.2 |
| 20260507001556 | 59 | 0 | 0.0 | 0.0 | 0.00 | 0.38 | 0.00 | 93 | 1012.1 |
| 20260507000054 | 59 | 0 | 0.0 | 0.0 | 0.00 | 0.38 | 0.00 | 92 | 1012.2 |
| 20260506234554 | 59 | 0 | 0.0 | 0.0 | 0.00 | 0.38 | 0.00 | 92 | 1012.3 |
| 20260506233106 | 59 | 0 | 0.0 | 0.9 | 0.00 | 0.38 | 0.00 | 92 | 1012.4 |
| 20260506231600 | 59 | 0 | 0.0 | 0.9 | 0.00 | 0.38 | 0.00 | 92 | 1012.2 |
| 20260506230105 | 59 | 325 | 0.0 | 0.9 | 0.00 | 0.38 | 0.00 | 92 | 1012.0 |
| 20260506224552 | 59 | 0 | 0.0 | 0.9 | 0.00 | 0.38 | 0.00 | 92 | 1012.1 |
| 20260506223056 | 59 | 0 | 0.0 | 0.9 | 0.00 | 0.38 | 0.00 | 92 | 1012.1 |
| 20260506221558 | 59 | 0 | 0.0 | 0.9 | 0.00 | 0.38 | 0.00 | 92 | 1012.2 |
| 20260506220059 | 59 | 0 | 1.7 | 5.2 | 0.00 | 0.38 | 0.00 | 91 | 1012.3 |
| 20260506214601 | 60 | 332 | 0.0 | 2.6 | 0.01 | 0.38 | 0.38 | 91 | 1012.3 |
| 20260506213055 | 60 | 0 | 0.0 | 0.0 | 0.05 | 0.38 | 0.38 | 91 | 1012.3 |
| 20260506211607 | 60 | 335 | 0.0 | 3.5 | 0.07 | 0.38 | 0.38 | 91 | 1012.3 |